This is the latest recevied weather packets stored in our database for station/object SV9TNF-1. If no packets are shown the sender has not sent any weather packets the latest 10 day(s).
| Time | Temp. | Humidity | Pressure | Rain* | Wind** | Luminosity | Snow |
|---|---|---|---|---|---|---|---|
| 1777814045 | 17.22° C | 47% | 1004.1 hPa | 0 mm | 9.39 m/s, 310° | - | - |
| 1777813744 | 18.33° C | 46% | 1004.1 hPa | 0 mm | 4.47 m/s, 165° | - | - |
| 1777813444 | 17.78° C | 46% | 1004.1 hPa | 0 mm | 13.86 m/s, 358° | - | - |
| 1777813144 | 18.33° C | 48% | 1004.1 hPa | 0 mm | 4.02 m/s, 132° | - | - |
| 1777812844 | 18.33° C | 47% | 1004.1 hPa | 0 mm | 4.92 m/s, 113° | - | - |
| 1777812544 | 17.78° C | 48% | 1004.1 hPa | 0 mm | 3.58 m/s, 90° | - | - |
| 1777812244 | 16.67° C | 53% | 1004.1 hPa | 0 mm | 13.41 m/s, 275° | - | - |
| 1777811944 | 16.67° C | 54% | 1004.1 hPa | 0 mm | 8.94 m/s, 309° | - | - |
| 1777811644 | 17.22° C | 53% | 1004.1 hPa | 0 mm | 8.05 m/s, 337° | - | - |
| 1777811344 | 16.67° C | 52% | 1004.1 hPa | 0 mm | 11.62 m/s, 316° | - | - |
| 1777811044 | 17.22° C | 52% | 1004.1 hPa | 0 mm | 8.05 m/s, 321° | - | - |
| 1777810744 | 16.67° C | 52% | 1004.1 hPa | 0 mm | 8.05 m/s, 310° | - | - |
| 1777810444 | 16.67° C | 50% | 1004.1 hPa | 0 mm | 12.96 m/s, 322° | - | - |
| 1777810143 | 16.67° C | 52% | 1004.1 hPa | 0 mm | 2.68 m/s, 211° | - | - |
| 1777809843 | 16.67° C | 52% | 1004.1 hPa | 0 mm | 12.07 m/s, 41° | - | - |
| 1777809543 | 17.78° C | 51% | 1004.1 hPa | 0 mm | 12.52 m/s, 137° | - | - |
| 1777809243 | 18.33° C | 49% | 1004.1 hPa | 0 mm | 7.15 m/s, 47° | - | - |
| 1777808943 | 17.22° C | 54% | 1004.1 hPa | 0 mm | 4.02 m/s, 137° | - | - |
| 1777808643 | 16.11° C | 56% | 1004.1 hPa | 0 mm | 14.75 m/s, 314° | - | - |
| 1777808343 | 17.22° C | 55% | 1004.1 hPa | 0 mm | 10.28 m/s, 74° | - | - |
| 1777808043 | 17.78° C | 51% | 1004.1 hPa | 0 mm | 6.71 m/s, 344° | - | - |
| 1777807743 | 18.33° C | 50% | 1004.1 hPa | 0 mm | 7.15 m/s, 340° | - | - |
| 1777807442 | 17.78° C | 51% | 1004.1 hPa | 0 mm | 9.83 m/s, 313° | - | - |
| 1777807143 | 18.33° C | 50% | 1004.1 hPa | 0 mm | 8.49 m/s, 351° | - | - |
| 1777806842 | 18.33° C | 52% | 1004.1 hPa | 0 mm | 13.41 m/s, 335° | - | - |
* Rain latest hour (hover to see other rain measurements)
** Current wind speed in m/s (hover to see current wind gust speed)